createdAt,value
2023-05-05T00:00:13.038Z,8616.00
2023-05-05T00:01:13.089Z,8523.00
2023-05-05T00:02:13.223Z,8563.00
2023-05-05T00:03:13.202Z,8346.00
2023-05-05T00:04:13.205Z,8093.00
2023-05-05T00:05:13.181Z,7919.00
2023-05-05T00:06:13.631Z,7860.00
2023-05-05T00:07:13.271Z,7785.00
2023-05-05T00:08:13.358Z,7586.00
2023-05-05T00:09:13.434Z,7311.00
2023-05-05T00:10:13.443Z,7142.00
2023-05-05T00:11:13.555Z,7253.00
2023-05-05T00:12:13.517Z,7391.00
2023-05-05T00:13:13.700Z,7582.00
2023-05-05T00:14:13.631Z,7869.00
2023-05-05T00:15:13.689Z,8125.00
2023-05-05T00:16:13.747Z,8040.00
2023-05-05T00:17:13.827Z,8027.00
2023-05-05T00:18:13.832Z,8126.00
2023-05-05T00:19:13.847Z,8293.00
2023-05-05T00:20:13.895Z,8295.00
2023-05-05T00:21:13.880Z,8398.00
2023-05-05T00:22:13.898Z,9040.00
2023-05-05T00:23:13.925Z,9565.00
2023-05-05T00:24:13.990Z,9709.00
2023-05-05T00:25:13.985Z,10032.00
2023-05-05T00:26:14.006Z,10588.00
2023-05-05T00:27:14.016Z,10629.00
2023-05-05T00:28:14.050Z,10660.00
2023-05-05T00:29:14.028Z,10480.00
2023-05-05T00:30:14.076Z,10212.00
2023-05-05T00:31:14.246Z,10014.00
2023-05-05T00:32:14.147Z,9723.00
2023-05-05T00:33:14.140Z,9415.00
2023-05-05T00:34:14.157Z,9410.00
2023-05-05T00:35:14.172Z,9539.00
2023-05-05T00:36:14.213Z,9435.00
2023-05-05T00:37:14.166Z,9709.00
2023-05-05T00:38:14.180Z,9489.00
2023-05-05T00:39:14.156Z,9200.00
2023-05-05T00:40:14.188Z,9076.00
2023-05-05T00:41:14.219Z,8947.00
2023-05-05T00:42:14.219Z,9154.00
2023-05-05T00:43:14.218Z,9104.00
2023-05-05T00:44:14.350Z,9049.00
2023-05-05T00:45:14.322Z,9202.00
2023-05-05T00:46:14.406Z,9259.00
2023-05-05T00:47:14.405Z,9381.00
2023-05-05T00:48:14.473Z,9516.00
2023-05-05T00:49:14.532Z,9914.00
2023-05-05T00:50:14.476Z,9978.00
2023-05-05T00:51:14.580Z,10158.00
2023-05-05T00:52:14.593Z,9822.00
2023-05-05T00:53:14.663Z,9487.00
2023-05-05T00:54:14.665Z,9398.00
2023-05-05T00:55:14.698Z,9637.00
2023-05-05T00:56:14.711Z,10041.00
2023-05-05T00:57:14.789Z,10500.00
2023-05-05T00:58:14.870Z,10770.00
2023-05-05T00:59:14.820Z,10227.00
2023-05-05T01:00:14.880Z,10099.00
2023-05-05T01:01:14.994Z,10111.00
2023-05-05T01:02:15.010Z,10117.00
2023-05-05T01:03:15.031Z,10256.00
2023-05-05T01:04:15.030Z,10238.00
2023-05-05T01:05:15.113Z,10254.00
2023-05-05T01:06:15.122Z,10281.00
2023-05-05T01:07:15.052Z,10129.00
2023-05-05T01:08:15.118Z,9862.00
2023-05-05T01:09:15.186Z,9602.00
2023-05-05T01:10:20.239Z,9266.00
2023-05-05T01:11:16.184Z,8830.00
2023-05-05T01:12:15.625Z,9284.00
2023-05-05T01:13:15.236Z,9438.00
2023-05-05T01:14:15.147Z,9416.00
2023-05-05T01:15:15.192Z,9559.00
2023-05-05T01:16:15.182Z,9335.00
2023-05-05T01:17:15.161Z,8800.00
2023-05-05T01:18:15.121Z,8536.00
2023-05-05T01:19:15.150Z,8666.00
2023-05-05T01:20:15.160Z,8691.00
2023-05-05T01:21:15.131Z,8642.00
2023-05-05T01:22:15.163Z,8503.00
2023-05-05T01:23:15.268Z,8510.00
2023-05-05T01:24:15.135Z,8612.00
2023-05-05T01:25:15.102Z,8563.00
2023-05-05T01:26:15.127Z,8450.00
2023-05-05T01:27:15.644Z,8327.00
2023-05-05T01:28:15.212Z,8066.00
2023-05-05T01:29:15.243Z,7898.00
2023-05-05T01:30:15.240Z,7952.00
2023-05-05T01:31:15.358Z,7993.00
2023-05-05T01:32:15.337Z,7990.00
2023-05-05T01:33:15.337Z,7901.00
2023-05-05T01:34:15.379Z,7797.00
2023-05-05T01:35:15.395Z,7733.00
2023-05-05T01:36:15.396Z,7700.00
2023-05-05T01:37:15.475Z,7836.00
2023-05-05T01:38:15.498Z,7989.00
2023-05-05T01:39:15.552Z,8077.00
2023-05-05T01:40:15.565Z,8303.00
2023-05-05T01:41:15.559Z,8403.00
2023-05-05T01:42:15.603Z,8333.00
2023-05-05T01:43:15.592Z,8271.00
2023-05-05T01:44:15.577Z,8342.00
2023-05-05T01:45:15.646Z,8431.00
2023-05-05T01:46:15.762Z,8412.00
2023-05-05T01:47:16.113Z,8524.00
2023-05-05T01:48:15.840Z,8690.00
2023-05-05T01:49:15.910Z,9093.00
2023-05-05T01:50:15.932Z,9247.00
2023-05-05T01:51:15.953Z,9185.00
2023-05-05T01:52:16.008Z,8900.00
2023-05-05T01:53:16.021Z,8689.00
2023-05-05T01:54:16.070Z,8619.00
2023-05-05T01:55:16.100Z,8523.00
2023-05-05T01:56:16.132Z,8547.00
2023-05-05T01:57:16.146Z,8369.00
2023-05-05T01:58:16.186Z,8032.00
2023-05-05T01:59:16.215Z,7857.00
2023-05-05T02:00:17.153Z,7738.00
2023-05-05T02:01:16.309Z,7754.00
2023-05-05T02:02:16.345Z,7574.00
2023-05-05T02:03:16.401Z,7726.00
2023-05-05T02:04:16.346Z,7856.00
2023-05-05T02:05:16.417Z,7975.00
2023-05-05T02:06:16.469Z,7800.00
2023-05-05T02:07:16.449Z,7687.00
2023-05-05T02:08:16.628Z,8077.00
2023-05-05T02:09:16.576Z,8179.00
2023-05-05T02:10:16.599Z,8363.00
2023-05-05T02:11:16.681Z,8184.00
2023-05-05T02:12:16.711Z,8524.00
2023-05-05T02:13:16.862Z,9001.00
2023-05-05T02:14:16.717Z,9206.00
2023-05-05T02:15:16.742Z,8907.00
2023-05-05T02:16:16.974Z,9039.00
2023-05-05T02:17:16.842Z,9178.00
2023-05-05T02:18:16.848Z,9332.00
2023-05-05T02:19:16.930Z,9011.00
2023-05-05T02:20:16.961Z,8495.00
2023-05-05T02:21:16.964Z,8143.00
2023-05-05T02:22:17.010Z,8149.00
2023-05-05T02:23:16.980Z,8107.00
2023-05-05T02:24:17.008Z,8149.00
2023-05-05T02:25:17.103Z,8485.00
2023-05-05T02:26:17.152Z,9057.00
2023-05-05T02:27:17.182Z,9582.00
2023-05-05T02:28:17.206Z,9977.00
2023-05-05T02:29:17.307Z,10367.00
2023-05-05T02:30:17.283Z,10420.00
2023-05-05T02:31:17.422Z,9958.00
2023-05-05T02:32:17.365Z,9703.00
2023-05-05T02:33:17.436Z,9778.00
2023-05-05T02:34:17.455Z,9510.00
2023-05-05T02:35:17.491Z,9445.00
2023-05-05T02:36:17.477Z,9570.00
2023-05-05T02:37:17.511Z,9913.00
2023-05-05T02:38:17.596Z,10114.00
2023-05-05T02:39:17.546Z,10197.00
2023-05-05T02:40:17.512Z,9915.00
2023-05-05T02:41:17.545Z,9447.00
2023-05-05T02:42:17.554Z,9188.00
2023-05-05T02:43:17.666Z,9404.00
2023-05-05T02:44:17.572Z,9852.00
2023-05-05T02:45:17.628Z,10154.00
2023-05-05T02:46:17.787Z,10142.00
2023-05-05T02:47:17.697Z,9780.00
2023-05-05T02:48:17.706Z,9736.00
2023-05-05T02:49:17.715Z,9740.00
2023-05-05T02:50:17.732Z,9601.00
2023-05-05T02:51:18.123Z,9407.00
2023-05-05T02:52:17.778Z,9157.00
2023-05-05T02:53:17.813Z,9050.00
2023-05-05T02:54:17.788Z,8798.00
2023-05-05T02:55:17.845Z,8506.00
2023-05-05T02:56:17.859Z,8444.00
2023-05-05T02:57:17.924Z,8644.00
2023-05-05T02:58:17.949Z,9062.00
2023-05-05T02:59:17.959Z,9406.00
2023-05-05T03:00:17.990Z,9570.00
2023-05-05T03:01:18.073Z,9655.00
2023-05-05T03:02:18.068Z,9798.00
2023-05-05T03:03:18.221Z,9814.00
2023-05-05T03:04:18.167Z,9836.00
2023-05-05T03:05:18.177Z,9945.00
2023-05-05T03:06:18.202Z,9925.00
2023-05-05T03:07:18.214Z,9896.00
2023-05-05T03:08:18.229Z,9954.00
2023-05-05T03:09:18.295Z,9979.00
2023-05-05T03:10:18.309Z,9844.00
2023-05-05T03:11:18.289Z,9702.00
2023-05-05T03:12:18.360Z,9526.00
2023-05-05T03:13:18.421Z,9274.00
2023-05-05T03:14:18.500Z,9062.00
2023-05-05T03:15:18.512Z,9137.00
2023-05-05T03:16:18.594Z,9242.00
2023-05-05T03:17:18.545Z,8909.00
2023-05-05T03:18:18.576Z,8676.00
2023-05-05T03:19:18.597Z,8677.00
2023-05-05T03:20:18.675Z,8516.00
2023-05-05T03:21:18.673Z,8217.00
2023-05-05T03:22:18.742Z,8350.00
2023-05-05T03:23:18.756Z,8600.00
2023-05-05T03:24:18.783Z,8638.00
2023-05-05T03:25:18.812Z,8598.00
2023-05-05T03:26:18.882Z,8571.00
2023-05-05T03:27:18.883Z,8575.00
2023-05-05T03:28:18.921Z,8662.00
2023-05-05T03:29:18.936Z,9010.00
2023-05-05T03:30:18.991Z,9392.00
2023-05-05T03:31:19.070Z,9712.00
2023-05-05T03:32:19.035Z,9945.00
2023-05-05T03:33:19.046Z,10060.00
2023-05-05T03:34:19.073Z,10074.00
2023-05-05T03:35:19.109Z,10042.00
2023-05-05T03:36:19.179Z,9893.00
2023-05-05T03:37:19.172Z,9598.00
2023-05-05T03:38:19.244Z,9497.00
2023-05-05T03:39:19.339Z,9211.00
2023-05-05T03:40:19.441Z,9030.00
2023-05-05T03:41:19.454Z,9037.00
2023-05-05T03:42:19.386Z,9114.00
2023-05-05T03:43:19.383Z,9093.00
2023-05-05T03:44:19.401Z,9200.00
2023-05-05T03:45:19.417Z,8798.00
2023-05-05T03:46:19.484Z,8869.00
2023-05-05T03:47:19.504Z,9251.00
2023-05-05T03:48:19.478Z,9465.00
2023-05-05T03:49:19.685Z,9477.00
2023-05-05T03:50:19.572Z,9632.00
2023-05-05T03:51:20.156Z,9871.00
2023-05-05T03:52:19.658Z,9775.00
2023-05-05T03:53:19.702Z,9179.00
2023-05-05T03:54:19.759Z,8769.00
2023-05-05T03:55:19.757Z,8811.00
2023-05-05T03:56:19.794Z,9004.00
2023-05-05T03:57:19.850Z,9325.00
2023-05-05T03:58:19.895Z,9550.00
2023-05-05T03:59:19.910Z,9594.00
2023-05-05T04:00:19.909Z,9755.00
2023-05-05T04:01:19.974Z,9958.00
2023-05-05T04:02:20.077Z,9971.00
2023-05-05T04:03:20.147Z,10053.00
2023-05-05T04:04:20.119Z,10082.00
2023-05-05T04:05:20.154Z,10168.00
2023-05-05T04:06:20.183Z,10267.00
2023-05-05T04:07:20.192Z,10323.00
2023-05-05T04:08:20.269Z,10259.00
2023-05-05T04:09:20.295Z,10329.00
2023-05-05T04:10:20.371Z,10414.00
2023-05-05T04:11:20.396Z,10695.00
2023-05-05T04:12:20.402Z,10784.00
2023-05-05T04:13:20.392Z,10782.00
2023-05-05T04:14:20.406Z,10901.00
2023-05-05T04:15:20.413Z,11116.00
2023-05-05T04:16:20.492Z,11269.00
2023-05-05T04:17:20.498Z,11421.00
2023-05-05T04:18:20.540Z,11616.00
2023-05-05T04:19:20.544Z,11746.00
2023-05-05T04:20:20.604Z,11741.00
2023-05-05T04:21:20.673Z,11749.00
2023-05-05T04:22:20.668Z,11770.00
2023-05-05T04:23:20.705Z,11763.00
2023-05-05T04:24:20.718Z,11793.00
2023-05-05T04:25:20.730Z,11761.00
2023-05-05T04:26:20.760Z,11729.00
2023-05-05T04:27:20.786Z,11707.00
2023-05-05T04:28:21.749Z,11737.00
2023-05-05T04:29:20.823Z,11714.00
2023-05-05T04:30:20.889Z,11702.00
2023-05-05T04:31:21.015Z,11721.00
2023-05-05T04:32:21.002Z,11725.00
2023-05-05T04:33:21.048Z,11716.00
2023-05-05T04:34:21.066Z,11751.00
2023-05-05T04:35:21.078Z,11747.00
2023-05-05T04:36:21.127Z,11766.00
2023-05-05T04:37:21.172Z,11740.00
2023-05-05T04:38:21.286Z,11762.00
2023-05-05T04:39:21.256Z,11803.00
2023-05-05T04:40:21.252Z,11758.00
2023-05-05T04:41:21.293Z,11710.00
2023-05-05T04:42:21.366Z,11492.00
2023-05-05T04:43:21.362Z,11597.00
2023-05-05T04:44:21.398Z,11617.00
2023-05-05T04:45:21.426Z,11662.00
2023-05-05T04:46:21.744Z,11784.00
2023-05-05T04:47:21.509Z,11788.00
2023-05-05T04:48:21.529Z,11637.00
2023-05-05T04:49:22.173Z,11444.00
2023-05-05T04:50:21.619Z,11315.00
2023-05-05T04:51:21.643Z,11272.00
2023-05-05T04:52:21.663Z,11307.00
2023-05-05T04:53:21.687Z,11444.00
2023-05-05T04:54:21.700Z,11533.00
2023-05-05T04:55:21.714Z,11603.00
2023-05-05T04:56:21.820Z,11686.00
2023-05-05T04:57:21.827Z,11677.00
2023-05-05T04:58:21.797Z,11643.00
2023-05-05T04:59:21.833Z,11696.00
2023-05-05T05:00:21.932Z,11757.00
2023-05-05T05:01:22.060Z,11752.00
2023-05-05T05:02:22.107Z,11915.00
2023-05-05T05:03:22.140Z,11920.00
2023-05-05T05:04:22.080Z,11856.00
2023-05-05T05:05:22.108Z,11829.00
2023-05-05T05:06:22.154Z,11731.00
2023-05-05T05:07:22.187Z,11659.00
2023-05-05T05:08:22.716Z,11793.00
2023-05-05T05:09:23.217Z,11718.00
2023-05-05T05:10:22.292Z,11531.00
2023-05-05T05:11:22.338Z,11467.00
2023-05-05T05:12:22.338Z,11384.00
2023-05-05T05:13:22.812Z,11376.00
2023-05-05T05:14:22.428Z,11397.00
2023-05-05T05:15:22.438Z,11406.00
2023-05-05T05:16:23.248Z,11484.00
2023-05-05T05:17:22.582Z,11286.00
2023-05-05T05:18:22.560Z,10783.00
2023-05-05T05:19:22.569Z,10455.00
2023-05-05T05:20:22.634Z,10373.00
2023-05-05T05:21:22.694Z,10533.00
2023-05-05T05:22:22.772Z,10577.00
2023-05-05T05:23:22.707Z,10736.00
2023-05-05T05:24:22.761Z,10970.00
2023-05-05T05:25:22.800Z,11111.00
2023-05-05T05:26:22.803Z,11207.00
2023-05-05T05:27:22.875Z,11234.00
2023-05-05T05:28:22.891Z,11196.00
2023-05-05T05:29:22.910Z,11227.00
2023-05-05T05:30:22.934Z,11136.00
2023-05-05T05:31:23.033Z,11138.00
2023-05-05T05:32:22.987Z,11111.00
2023-05-05T05:33:23.137Z,11094.00
2023-05-05T05:34:23.090Z,11002.00
2023-05-05T05:35:23.030Z,10938.00
2023-05-05T05:36:23.216Z,10910.00
2023-05-05T05:37:23.071Z,10882.00
2023-05-05T05:38:23.091Z,10831.00
2023-05-05T05:39:23.112Z,10803.00
2023-05-05T05:40:23.731Z,10488.00
2023-05-05T05:41:23.204Z,9996.00
2023-05-05T05:42:23.212Z,9679.00
2023-05-05T05:43:23.275Z,9476.00
2023-05-05T05:44:23.395Z,9233.00
2023-05-05T05:45:23.370Z,8954.00
2023-05-05T05:46:23.347Z,8906.00
2023-05-05T05:47:23.382Z,9021.00
2023-05-05T05:48:23.317Z,9021.00
2023-05-05T05:49:23.389Z,9059.00
2023-05-05T05:50:23.381Z,9033.00
2023-05-05T05:51:23.462Z,9267.00
2023-05-05T05:52:23.447Z,9419.00
2023-05-05T05:53:23.492Z,9471.00
2023-05-05T05:54:23.545Z,9538.00
2023-05-05T05:55:23.543Z,9649.00
2023-05-05T05:56:23.612Z,9795.00
2023-05-05T05:57:23.589Z,9965.00
2023-05-05T05:58:23.604Z,10118.00
2023-05-05T05:59:23.648Z,10090.00
2023-05-05T06:00:23.692Z,10099.00
2023-05-05T06:01:23.713Z,10114.00
2023-05-05T06:02:23.719Z,10009.00
2023-05-05T06:03:23.893Z,10085.00
2023-05-05T06:04:23.848Z,10119.00
2023-05-05T06:05:23.839Z,9599.00
2023-05-05T06:06:24.218Z,9117.00
2023-05-05T06:07:23.970Z,8903.00
2023-05-05T06:08:25.686Z,8935.00
2023-05-05T06:09:24.017Z,9107.00
2023-05-05T06:10:27.770Z,9100.00
2023-05-05T06:11:24.128Z,9022.00
2023-05-05T06:12:24.033Z,8466.00
2023-05-05T06:13:23.994Z,8083.00
2023-05-05T06:14:24.020Z,7943.00
2023-05-05T06:15:24.020Z,7788.00
2023-05-05T06:16:24.104Z,7671.00
2023-05-05T06:17:23.972Z,7360.00
2023-05-05T06:18:24.288Z,7492.00
2023-05-05T06:19:24.368Z,6956.00
2023-05-05T06:20:23.970Z,7123.00
2023-05-05T06:21:24.817Z,6928.00
2023-05-05T06:22:24.046Z,6872.00
2023-05-05T06:23:23.942Z,6800.00
2023-05-05T06:24:23.946Z,6280.00
2023-05-05T06:25:23.966Z,6572.00
2023-05-05T06:26:23.939Z,6687.00
2023-05-05T06:27:23.933Z,6562.00
2023-05-05T06:28:24.388Z,6378.00
2023-05-05T06:29:23.922Z,6291.00
2023-05-05T06:30:23.893Z,6474.00
2023-05-05T06:31:23.925Z,6298.00
2023-05-05T06:32:24.014Z,6296.00
2023-05-05T06:33:23.869Z,6323.00
2023-05-05T06:34:23.879Z,6237.00
2023-05-05T06:35:23.852Z,5959.00
2023-05-05T06:36:24.050Z,5987.00
2023-05-05T06:37:24.799Z,5816.00
2023-05-05T06:38:24.711Z,5402.00
2023-05-05T06:39:23.866Z,5116.00
2023-05-05T06:40:23.921Z,5012.00
2023-05-05T06:41:23.805Z,5104.00
2023-05-05T06:42:23.831Z,5156.00
2023-05-05T06:43:24.750Z,4973.00
2023-05-05T06:44:23.798Z,4662.00
2023-05-05T06:45:23.780Z,4655.00
2023-05-05T06:46:23.826Z,4716.00
2023-05-05T06:47:24.247Z,5052.00
2023-05-05T06:48:23.776Z,4747.00
2023-05-05T06:49:23.868Z,4452.00
2023-05-05T06:50:23.972Z,4651.00
2023-05-05T06:51:23.937Z,4914.00
2023-05-05T06:52:24.064Z,4910.00
2023-05-05T06:53:24.095Z,5168.00
2023-05-05T06:54:24.091Z,4799.00
2023-05-05T06:55:24.167Z,4420.00
2023-05-05T06:56:24.192Z,4210.00
2023-05-05T06:57:24.263Z,4028.00
2023-05-05T06:58:24.272Z,4103.00
2023-05-05T06:59:24.300Z,3906.00
2023-05-05T07:00:24.408Z,4624.00
2023-05-05T07:01:24.638Z,4422.00
2023-05-05T07:02:26.662Z,4290.00
2023-05-05T07:03:24.601Z,4323.00
2023-05-05T07:04:24.657Z,4242.00
2023-05-05T07:05:24.675Z,4278.00
2023-05-05T07:06:25.245Z,4247.00
2023-05-05T07:07:24.861Z,4127.00
2023-05-05T07:08:25.133Z,3895.00
2023-05-05T07:09:24.904Z,3641.00
2023-05-05T07:10:24.907Z,3790.00
2023-05-05T07:11:24.978Z,4075.00
2023-05-05T07:12:25.044Z,4254.00
2023-05-05T07:13:25.069Z,4100.00
2023-05-05T07:14:25.087Z,3802.00
2023-05-05T07:15:29.112Z,3495.00
2023-05-05T07:16:25.229Z,3110.00
2023-05-05T07:17:25.273Z,3222.00
2023-05-05T07:18:25.120Z,3466.00
2023-05-05T07:19:25.231Z,3427.00
2023-05-05T07:20:25.211Z,3351.00
2023-05-05T07:21:25.114Z,3203.00
2023-05-05T07:22:25.133Z,2975.00
2023-05-05T07:23:25.103Z,2617.00
2023-05-05T07:24:25.068Z,2668.00
2023-05-05T07:25:25.065Z,2784.00
2023-05-05T07:26:25.109Z,2542.00
2023-05-05T07:27:25.080Z,3131.00
2023-05-05T07:28:25.094Z,3140.00
2023-05-05T07:29:25.208Z,3029.00
2023-05-05T07:30:25.530Z,3225.00
2023-05-05T07:31:25.158Z,3069.00
2023-05-05T07:32:25.118Z,2994.00
2023-05-05T07:33:25.036Z,2991.00
2023-05-05T07:34:25.255Z,2637.00
2023-05-05T07:35:25.793Z,2636.00
2023-05-05T07:36:25.089Z,2411.00
2023-05-05T07:37:25.018Z,2413.00
2023-05-05T07:38:25.087Z,2014.00
2023-05-05T07:39:25.038Z,2077.00
2023-05-05T07:40:25.043Z,2173.00
2023-05-05T07:41:25.099Z,2290.00
2023-05-05T07:42:25.149Z,2307.00
2023-05-05T07:43:25.216Z,2269.00
2023-05-05T07:44:25.225Z,2506.00
2023-05-05T07:45:25.362Z,1925.00
2023-05-05T07:46:25.413Z,1890.00
2023-05-05T07:47:25.335Z,2216.00
2023-05-05T07:48:25.483Z,2569.00
2023-05-05T07:49:25.374Z,1998.00
2023-05-05T07:50:26.246Z,1733.00
2023-05-05T07:51:25.402Z,1803.00
2023-05-05T07:52:43.708Z,1554.00
2023-05-05T07:53:27.395Z,1127.00
2023-05-05T07:54:25.417Z,1263.00
2023-05-05T07:55:25.388Z,1589.00
2023-05-05T07:56:25.407Z,1605.00
2023-05-05T07:57:25.735Z,1779.00
2023-05-05T07:58:25.397Z,1474.00
2023-05-05T07:59:25.462Z,927.00
2023-05-05T08:00:25.447Z,698.00
2023-05-05T08:01:25.407Z,668.00
2023-05-05T08:02:25.499Z,623.00
2023-05-05T08:03:25.663Z,646.00
2023-05-05T08:04:25.537Z,581.00
2023-05-05T08:05:25.588Z,492.00
2023-05-05T08:06:25.506Z,667.00
2023-05-05T08:07:25.518Z,822.00
2023-05-05T08:08:25.532Z,642.00
2023-05-05T08:09:25.603Z,924.00
2023-05-05T08:10:25.628Z,579.00
2023-05-05T08:11:26.800Z,524.00
2023-05-05T08:12:25.810Z,823.00
2023-05-05T08:13:25.924Z,727.00
2023-05-05T08:14:25.796Z,584.00
2023-05-05T08:15:26.031Z,633.00
2023-05-05T08:16:26.000Z,739.00
2023-05-05T08:17:25.972Z,803.00
2023-05-05T08:18:26.130Z,923.00
2023-05-05T08:19:29.292Z,563.00
2023-05-05T08:20:26.794Z,491.00
2023-05-05T08:21:26.789Z,574.00
2023-05-05T08:22:26.066Z,834.00
2023-05-05T08:23:26.037Z,1082.00
2023-05-05T08:24:25.972Z,729.00
2023-05-05T08:25:26.033Z,660.00
2023-05-05T08:26:26.633Z,1173.00
2023-05-05T08:27:26.249Z,1120.00
2023-05-05T08:28:25.961Z,664.00
2023-05-05T08:29:26.929Z,690.00
2023-05-05T08:30:25.959Z,1115.00
2023-05-05T08:31:26.021Z,688.00
2023-05-05T08:32:27.253Z,627.00
2023-05-05T08:33:25.992Z,705.00
2023-05-05T08:34:26.139Z,841.00
2023-05-05T08:35:26.119Z,655.00
2023-05-05T08:36:26.157Z,611.00
2023-05-05T08:37:26.282Z,528.00
2023-05-05T08:38:26.204Z,400.00
2023-05-05T08:39:26.272Z,483.00
2023-05-05T08:40:26.337Z,504.00
2023-05-05T08:41:26.371Z,482.00
2023-05-05T08:42:37.066Z,400.00
2023-05-05T08:43:27.395Z,400.00
2023-05-05T08:44:27.441Z,400.00
2023-05-05T08:45:26.384Z,400.00
2023-05-05T08:46:26.366Z,400.00
2023-05-05T08:47:26.383Z,400.00
2023-05-05T08:48:26.382Z,400.00
2023-05-05T08:49:26.348Z,400.00
2023-05-05T08:50:26.366Z,400.00
2023-05-05T08:51:26.404Z,400.00
2023-05-05T08:52:26.468Z,400.00
2023-05-05T08:53:26.368Z,400.00
2023-05-05T08:54:26.364Z,400.00
2023-05-05T08:55:26.464Z,400.00
2023-05-05T08:56:26.372Z,400.00
2023-05-05T08:57:26.404Z,400.00
2023-05-05T08:58:28.786Z,425.00
2023-05-05T08:59:26.643Z,525.00
2023-05-05T09:00:26.714Z,560.00
2023-05-05T09:01:26.732Z,650.00
2023-05-05T09:02:26.892Z,1041.00
2023-05-05T09:03:26.831Z,908.00
2023-05-05T09:04:26.892Z,853.00
2023-05-05T09:05:26.887Z,854.00
2023-05-05T09:06:26.894Z,1144.00
2023-05-05T09:07:26.913Z,2020.00
2023-05-05T09:08:26.962Z,1215.00
2023-05-05T09:09:26.938Z,1098.00
2023-05-05T09:10:27.923Z,656.00
2023-05-05T09:11:27.061Z,766.00
2023-05-05T09:12:27.301Z,770.00
2023-05-05T09:13:27.216Z,827.00
2023-05-05T09:14:27.285Z,964.00
2023-05-05T09:15:27.230Z,1232.00
2023-05-05T09:16:27.277Z,868.00
2023-05-05T09:17:27.475Z,919.00
2023-05-05T09:18:27.359Z,951.00
2023-05-05T09:19:27.759Z,1185.00
2023-05-05T09:20:27.376Z,1093.00
2023-05-05T09:21:27.487Z,851.00
2023-05-05T09:22:27.430Z,805.00
2023-05-05T09:23:27.408Z,845.00
2023-05-05T09:24:27.487Z,890.00
2023-05-05T09:25:27.503Z,562.00
2023-05-05T09:26:27.519Z,484.00
2023-05-05T09:27:27.580Z,506.00
2023-05-05T09:28:27.532Z,552.00
2023-05-05T09:29:27.570Z,552.00
2023-05-05T09:30:27.586Z,584.00
2023-05-05T09:31:27.715Z,565.00
2023-05-05T09:32:29.202Z,595.00
2023-05-05T09:33:27.746Z,624.00
2023-05-05T09:34:27.759Z,679.00
2023-05-05T09:35:27.701Z,1112.00
2023-05-05T09:36:27.631Z,1251.00
2023-05-05T09:37:27.643Z,1866.00
2023-05-05T09:38:32.295Z,1943.00
2023-05-05T09:39:27.631Z,1952.00
2023-05-05T09:40:27.794Z,1961.00
2023-05-05T09:41:27.664Z,1069.00
2023-05-05T09:42:27.604Z,1113.00
2023-05-05T09:43:27.624Z,1333.00
2023-05-05T09:44:27.793Z,2362.00
2023-05-05T09:45:27.856Z,2303.00
2023-05-05T09:46:28.347Z,1704.00
2023-05-05T09:47:29.843Z,1638.00
2023-05-05T09:48:30.051Z,1158.00
2023-05-05T09:49:27.844Z,1326.00
2023-05-05T09:50:27.873Z,2419.00
2023-05-05T09:51:27.907Z,2062.00
2023-05-05T09:52:27.975Z,2427.00
2023-05-05T09:53:28.301Z,2590.00
2023-05-05T09:54:28.134Z,1644.00
2023-05-05T09:55:28.120Z,937.00
2023-05-05T09:56:28.124Z,975.00
2023-05-05T09:57:28.303Z,1210.00
2023-05-05T09:58:28.281Z,1347.00
2023-05-05T09:59:28.173Z,1222.00
2023-05-05T10:00:28.201Z,1183.00
2023-05-05T10:01:28.304Z,1311.00
2023-05-05T10:02:28.325Z,1210.00
2023-05-05T10:03:28.362Z,1577.00
2023-05-05T10:04:29.544Z,2369.00
2023-05-05T10:05:28.567Z,2446.00
2023-05-05T10:06:28.442Z,2490.00
2023-05-05T10:07:28.423Z,1775.00
2023-05-05T10:08:28.449Z,1284.00
2023-05-05T10:09:28.492Z,1517.00
2023-05-05T10:10:29.079Z,1528.00
2023-05-05T10:11:28.500Z,1600.00
2023-05-05T10:12:28.849Z,1439.00
2023-05-05T10:13:28.746Z,1618.00
2023-05-05T10:14:28.582Z,1657.00
2023-05-05T10:15:28.606Z,2182.00
2023-05-05T10:16:29.152Z,2531.00
2023-05-05T10:17:28.635Z,2303.00
2023-05-05T10:18:28.740Z,2413.00
2023-05-05T10:19:28.786Z,2172.00
2023-05-05T10:20:28.767Z,2315.00
2023-05-05T10:21:28.905Z,1922.00
2023-05-05T10:22:28.859Z,2482.00
2023-05-05T10:23:29.802Z,1675.00
2023-05-05T10:24:29.820Z,1166.00
2023-05-05T10:25:28.986Z,1328.00
2023-05-05T10:26:28.961Z,1337.00
2023-05-05T10:27:29.208Z,1208.00
2023-05-05T10:28:29.813Z,1339.00
2023-05-05T10:29:29.042Z,1387.00
2023-05-05T10:30:29.252Z,1150.00
2023-05-05T10:31:29.174Z,1296.00
2023-05-05T10:32:53.504Z,1578.00
2023-05-05T10:33:32.256Z,1369.00
2023-05-05T10:34:29.570Z,1086.00
2023-05-05T10:35:29.137Z,916.00
2023-05-05T10:36:29.194Z,871.00
2023-05-05T10:37:29.142Z,1071.00
2023-05-05T10:38:29.134Z,1187.00
2023-05-05T10:39:29.126Z,1942.00
2023-05-05T10:40:29.106Z,1778.00
2023-05-05T10:41:29.078Z,965.00
2023-05-05T10:42:29.080Z,614.00
2023-05-05T10:43:29.314Z,647.00
2023-05-05T10:44:29.351Z,656.00
2023-05-05T10:45:29.178Z,506.00
2023-05-05T10:46:29.097Z,441.00
2023-05-05T10:47:29.854Z,400.00
2023-05-05T10:48:29.856Z,494.00
2023-05-05T10:49:29.320Z,651.00
2023-05-05T10:50:29.186Z,1140.00
2023-05-05T10:51:39.209Z,1490.00
2023-05-05T10:52:30.015Z,1550.00
2023-05-05T10:53:29.029Z,1686.00
2023-05-05T10:54:29.032Z,1643.00
2023-05-05T10:55:29.019Z,1332.00
2023-05-05T10:56:29.004Z,1376.00
2023-05-05T10:57:29.013Z,1666.00
2023-05-05T10:58:28.996Z,1451.00
2023-05-05T10:59:29.003Z,663.00
2023-05-05T11:00:29.147Z,707.00
2023-05-05T11:01:29.112Z,1124.00
2023-05-05T11:02:29.003Z,1893.00
2023-05-05T11:03:29.025Z,4352.00
2023-05-05T11:04:29.007Z,4072.00
2023-05-05T11:05:28.974Z,3998.00
2023-05-05T11:06:29.024Z,3652.00
2023-05-05T11:07:29.055Z,3032.00
2023-05-05T11:08:29.084Z,2614.00
2023-05-05T11:09:29.154Z,2056.00
2023-05-05T11:10:29.265Z,1359.00
2023-05-05T11:11:29.231Z,1218.00
2023-05-05T11:12:29.324Z,1539.00
2023-05-05T11:13:29.573Z,1429.00
2023-05-05T11:14:29.804Z,1838.00
2023-05-05T11:15:29.315Z,2165.00
2023-05-05T11:16:29.533Z,2766.00
2023-05-05T11:17:29.570Z,3243.00
2023-05-05T11:18:29.352Z,2204.00
2023-05-05T11:19:29.438Z,2360.00
2023-05-05T11:20:29.476Z,2699.00
2023-05-05T11:21:29.584Z,1735.00
2023-05-05T11:22:29.616Z,1538.00
2023-05-05T11:23:29.822Z,1737.00
2023-05-05T11:24:29.728Z,2483.00
2023-05-05T11:25:29.712Z,1953.00
2023-05-05T11:26:29.766Z,549.00
2023-05-05T11:27:29.835Z,629.00
2023-05-05T11:28:29.946Z,1373.00
2023-05-05T11:29:29.897Z,1467.00
2023-05-05T11:30:29.958Z,1254.00
2023-05-05T11:31:30.039Z,981.00
2023-05-05T11:32:30.142Z,920.00
2023-05-05T11:33:30.088Z,1357.00
2023-05-05T11:34:30.242Z,1201.00
2023-05-05T11:35:30.147Z,1066.00
2023-05-05T11:36:30.159Z,999.00
2023-05-05T11:37:30.242Z,806.00
2023-05-05T11:38:30.267Z,1009.00
2023-05-05T11:39:30.321Z,1124.00
2023-05-05T11:40:30.446Z,1294.00
2023-05-05T11:41:30.388Z,1195.00
2023-05-05T11:42:30.502Z,1529.00
2023-05-05T11:43:30.501Z,1910.00
2023-05-05T11:44:30.489Z,775.00
2023-05-05T11:45:30.496Z,861.00
2023-05-05T11:46:30.553Z,1084.00
2023-05-05T11:47:30.575Z,1463.00
2023-05-05T11:48:30.542Z,1901.00
2023-05-05T11:49:30.550Z,1296.00
2023-05-05T11:50:30.534Z,642.00
2023-05-05T11:51:30.544Z,655.00
2023-05-05T11:52:30.574Z,833.00
2023-05-05T11:53:30.631Z,1090.00
2023-05-05T11:54:30.619Z,1284.00
2023-05-05T11:55:30.628Z,1213.00
2023-05-05T11:56:30.645Z,1135.00
2023-05-05T11:57:30.681Z,952.00
2023-05-05T11:58:30.695Z,1044.00
2023-05-05T11:59:30.761Z,1004.00
2023-05-05T12:00:30.810Z,871.00
2023-05-05T12:01:30.835Z,984.00
2023-05-05T12:02:30.953Z,1038.00
2023-05-05T12:03:31.118Z,991.00
2023-05-05T12:04:31.064Z,605.00
2023-05-05T12:05:30.951Z,623.00